sensor_id;sensor_type;location;lat;lon;timestamp;P1;durP1;ratioP1;P2;durP2;ratioP2
69172;SDS011;56280;49.662;8.408;2024-01-11T00:02:15;67.27;;;36.30;;
69172;SDS011;56280;49.662;8.408;2024-01-11T00:04:41;62.10;;;36.47;;
69172;SDS011;56280;49.662;8.408;2024-01-11T00:07:08;64.88;;;36.40;;
69172;SDS011;56280;49.662;8.408;2024-01-11T00:09:33;65.87;;;39.77;;
69172;SDS011;56280;49.662;8.408;2024-01-11T00:11:59;66.97;;;36.75;;
69172;SDS011;56280;49.662;8.408;2024-01-11T00:14:24;64.93;;;37.53;;
69172;SDS011;56280;49.662;8.408;2024-01-11T00:16:49;63.83;;;34.97;;
69172;SDS011;56280;49.662;8.408;2024-01-11T00:19:15;61.30;;;35.47;;
69172;SDS011;56280;49.662;8.408;2024-01-11T00:21:40;65.70;;;38.23;;
69172;SDS011;56280;49.662;8.408;2024-01-11T00:24:06;67.13;;;37.07;;
69172;SDS011;56280;49.662;8.408;2024-01-11T00:26:31;64.13;;;37.10;;
69172;SDS011;56280;49.662;8.408;2024-01-11T00:28:56;67.90;;;36.67;;
69172;SDS011;56280;49.662;8.408;2024-01-11T00:31:22;67.33;;;38.57;;
69172;SDS011;56280;49.662;8.408;2024-01-11T00:33:53;66.60;;;37.58;;
69172;SDS011;56280;49.662;8.408;2024-01-11T00:36:18;62.97;;;37.23;;
69172;SDS011;56280;49.662;8.408;2024-01-11T00:38:47;65.53;;;37.37;;
69172;SDS011;56280;49.662;8.408;2024-01-11T00:41:12;64.87;;;37.60;;
69172;SDS011;56280;49.662;8.408;2024-01-11T00:43:38;63.17;;;37.43;;
69172;SDS011;56280;49.662;8.408;2024-01-11T00:46:03;62.97;;;37.40;;
69172;SDS011;56280;49.662;8.408;2024-01-11T00:48:28;63.63;;;36.40;;
69172;SDS011;56280;49.662;8.408;2024-01-11T00:50:54;64.43;;;37.33;;
69172;SDS011;56280;49.662;8.408;2024-01-11T00:53:19;63.17;;;36.37;;
69172;SDS011;56280;49.662;8.408;2024-01-11T00:55:44;68.27;;;37.57;;
69172;SDS011;56280;49.662;8.408;2024-01-11T00:58:10;65.33;;;38.23;;
69172;SDS011;56280;49.662;8.408;2024-01-11T01:00:35;69.73;;;38.10;;
69172;SDS011;56280;49.662;8.408;2024-01-11T01:03:00;69.32;;;38.45;;
69172;SDS011;56280;49.662;8.408;2024-01-11T01:05:26;73.27;;;40.63;;
69172;SDS011;56280;49.662;8.408;2024-01-11T01:07:51;69.63;;;37.43;;
69172;SDS011;56280;49.662;8.408;2024-01-11T01:10:17;74.70;;;40.28;;
69172;SDS011;56280;49.662;8.408;2024-01-11T01:12:43;68.87;;;38.93;;
69172;SDS011;56280;49.662;8.408;2024-01-11T01:15:08;71.20;;;39.90;;
69172;SDS011;56280;49.662;8.408;2024-01-11T01:17:33;68.93;;;39.73;;
69172;SDS011;56280;49.662;8.408;2024-01-11T01:19:59;73.37;;;40.20;;
69172;SDS011;56280;49.662;8.408;2024-01-11T01:22:24;71.87;;;39.83;;
69172;SDS011;56280;49.662;8.408;2024-01-11T01:24:49;68.87;;;38.53;;
69172;SDS011;56280;49.662;8.408;2024-01-11T01:27:15;73.60;;;39.17;;
69172;SDS011;56280;49.662;8.408;2024-01-11T01:29:41;72.57;;;38.83;;
69172;SDS011;56280;49.662;8.408;2024-01-11T01:32:07;72.70;;;40.20;;
69172;SDS011;56280;49.662;8.408;2024-01-11T01:34:32;70.20;;;38.30;;
69172;SDS011;56280;49.662;8.408;2024-01-11T01:36:57;70.73;;;39.90;;
69172;SDS011;56280;49.662;8.408;2024-01-11T01:39:22;70.30;;;39.27;;
69172;SDS011;56280;49.662;8.408;2024-01-11T01:41:48;74.13;;;39.30;;
69172;SDS011;56280;49.662;8.408;2024-01-11T01:44:13;71.33;;;38.53;;
69172;SDS011;56280;49.662;8.408;2024-01-11T01:46:38;73.20;;;38.80;;
69172;SDS011;56280;49.662;8.408;2024-01-11T01:49:04;75.90;;;38.37;;
69172;SDS011;56280;49.662;8.408;2024-01-11T01:51:30;65.93;;;38.80;;
69172;SDS011;56280;49.662;8.408;2024-01-11T01:53:57;65.87;;;37.33;;
69172;SDS011;56280;49.662;8.408;2024-01-11T01:56:23;65.60;;;37.17;;
69172;SDS011;56280;49.662;8.408;2024-01-11T01:58:50;66.37;;;38.13;;
69172;SDS011;56280;49.662;8.408;2024-01-11T02:01:16;67.95;;;37.60;;
69172;SDS011;56280;49.662;8.408;2024-01-11T02:03:44;65.00;;;37.22;;
69172;SDS011;56280;49.662;8.408;2024-01-11T02:06:11;66.88;;;35.95;;
69172;SDS011;56280;49.662;8.408;2024-01-11T02:08:38;68.07;;;37.40;;
69172;SDS011;56280;49.662;8.408;2024-01-11T02:11:06;63.20;;;37.63;;
69172;SDS011;56280;49.662;8.408;2024-01-11T02:13:32;66.30;;;37.88;;
69172;SDS011;56280;49.662;8.408;2024-01-11T02:15:57;67.83;;;37.97;;
69172;SDS011;56280;49.662;8.408;2024-01-11T02:18:23;67.47;;;37.73;;
69172;SDS011;56280;49.662;8.408;2024-01-11T02:20:48;68.63;;;37.53;;
69172;SDS011;56280;49.662;8.408;2024-01-11T02:23:20;67.80;;;37.73;;
69172;SDS011;56280;49.662;8.408;2024-01-11T02:25:49;68.28;;;39.55;;
69172;SDS011;56280;49.662;8.408;2024-01-11T02:28:14;67.53;;;37.33;;
69172;SDS011;56280;49.662;8.408;2024-01-11T02:30:39;65.30;;;35.83;;
69172;SDS011;56280;49.662;8.408;2024-01-11T02:33:05;66.80;;;38.30;;
69172;SDS011;56280;49.662;8.408;2024-01-11T02:35:31;71.43;;;37.97;;
69172;SDS011;56280;49.662;8.408;2024-01-11T02:37:56;67.65;;;37.67;;
69172;SDS011;56280;49.662;8.408;2024-01-11T02:40:23;72.83;;;37.77;;
69172;SDS011;56280;49.662;8.408;2024-01-11T02:42:48;69.22;;;39.05;;
69172;SDS011;56280;49.662;8.408;2024-01-11T02:45:14;72.33;;;39.83;;
69172;SDS011;56280;49.662;8.408;2024-01-11T02:47:39;69.87;;;40.13;;
69172;SDS011;56280;49.662;8.408;2024-01-11T02:50:05;74.40;;;40.77;;
69172;SDS011;56280;49.662;8.408;2024-01-11T02:52:32;71.20;;;40.57;;
69172;SDS011;56280;49.662;8.408;2024-01-11T02:54:58;69.82;;;39.40;;
69172;SDS011;56280;49.662;8.408;2024-01-11T02:57:23;78.70;;;40.80;;
69172;SDS011;56280;49.662;8.408;2024-01-11T02:59:49;67.70;;;38.93;;
69172;SDS011;56280;49.662;8.408;2024-01-11T03:02:14;76.45;;;41.22;;
69172;SDS011;56280;49.662;8.408;2024-01-11T03:04:39;74.40;;;39.83;;
69172;SDS011;56280;49.662;8.408;2024-01-11T03:07:05;72.63;;;39.77;;
69172;SDS011;56280;49.662;8.408;2024-01-11T03:09:30;70.90;;;40.20;;
69172;SDS011;56280;49.662;8.408;2024-01-11T03:11:55;73.40;;;40.93;;
69172;SDS011;56280;49.662;8.408;2024-01-11T03:14:20;67.23;;;39.00;;
69172;SDS011;56280;49.662;8.408;2024-01-11T03:16:46;70.00;;;39.00;;
69172;SDS011;56280;49.662;8.408;2024-01-11T03:19:11;72.87;;;39.23;;
69172;SDS011;56280;49.662;8.408;2024-01-11T03:21:40;72.83;;;41.00;;
69172;SDS011;56280;49.662;8.408;2024-01-11T03:24:07;75.25;;;39.63;;
69172;SDS011;56280;49.662;8.408;2024-01-11T03:26:32;73.70;;;38.73;;
69172;SDS011;56280;49.662;8.408;2024-01-11T03:28:57;69.47;;;39.20;;
69172;SDS011;56280;49.662;8.408;2024-01-11T03:31:23;71.17;;;38.13;;
69172;SDS011;56280;49.662;8.408;2024-01-11T03:33:48;70.37;;;38.77;;
69172;SDS011;56280;49.662;8.408;2024-01-11T03:36:13;68.90;;;39.10;;
69172;SDS011;56280;49.662;8.408;2024-01-11T03:38:39;70.67;;;38.53;;
69172;SDS011;56280;49.662;8.408;2024-01-11T03:41:08;73.00;;;38.57;;
69172;SDS011;56280;49.662;8.408;2024-01-11T03:43:34;71.43;;;39.30;;
69172;SDS011;56280;49.662;8.408;2024-01-11T03:46:00;73.88;;;38.42;;
69172;SDS011;56280;49.662;8.408;2024-01-11T03:48:26;73.70;;;39.33;;
69172;SDS011;56280;49.662;8.408;2024-01-11T03:50:51;70.47;;;38.70;;
69172;SDS011;56280;49.662;8.408;2024-01-11T03:53:16;70.93;;;38.90;;
69172;SDS011;56280;49.662;8.408;2024-01-11T03:55:41;67.87;;;39.80;;
69172;SDS011;56280;49.662;8.408;2024-01-11T03:58:07;73.83;;;39.77;;
69172;SDS011;56280;49.662;8.408;2024-01-11T04:00:32;73.57;;;40.43;;
69172;SDS011;56280;49.662;8.408;2024-01-11T04:02:58;71.07;;;37.80;;
69172;SDS011;56280;49.662;8.408;2024-01-11T04:05:23;71.43;;;39.88;;
69172;SDS011;56280;49.662;8.408;2024-01-11T04:07:49;72.10;;;39.70;;
69172;SDS011;56280;49.662;8.408;2024-01-11T04:10:15;69.50;;;38.57;;
69172;SDS011;56280;49.662;8.408;2024-01-11T04:12:42;70.93;;;39.43;;
69172;SDS011;56280;49.662;8.408;2024-01-11T04:15:08;71.17;;;40.63;;
69172;SDS011;56280;49.662;8.408;2024-01-11T04:17:33;74.07;;;39.53;;
69172;SDS011;56280;49.662;8.408;2024-01-11T04:19:58;71.43;;;39.13;;
69172;SDS011;56280;49.662;8.408;2024-01-11T04:22:24;70.20;;;37.90;;
69172;SDS011;56280;49.662;8.408;2024-01-11T04:24:49;70.03;;;38.27;;
69172;SDS011;56280;49.662;8.408;2024-01-11T04:27:14;71.03;;;38.70;;
69172;SDS011;56280;49.662;8.408;2024-01-11T04:29:40;71.13;;;38.93;;
69172;SDS011;56280;49.662;8.408;2024-01-11T04:32:05;70.37;;;39.40;;
69172;SDS011;56280;49.662;8.408;2024-01-11T04:34:30;72.90;;;38.53;;
69172;SDS011;56280;49.662;8.408;2024-01-11T04:36:55;73.87;;;40.10;;
69172;SDS011;56280;49.662;8.408;2024-01-11T04:39:21;70.23;;;38.63;;
69172;SDS011;56280;49.662;8.408;2024-01-11T04:41:46;74.40;;;40.37;;
69172;SDS011;56280;49.662;8.408;2024-01-11T04:44:11;72.27;;;40.50;;
69172;SDS011;56280;49.662;8.408;2024-01-11T04:46:36;71.47;;;39.63;;
69172;SDS011;56280;49.662;8.408;2024-01-11T04:49:02;72.90;;;39.47;;
69172;SDS011;56280;49.662;8.408;2024-01-11T04:51:27;72.20;;;38.80;;
69172;SDS011;56280;49.662;8.408;2024-01-11T04:53:52;74.33;;;39.63;;
69172;SDS011;56280;49.662;8.408;2024-01-11T04:56:18;73.67;;;39.90;;
69172;SDS011;56280;49.662;8.408;2024-01-11T04:58:43;72.50;;;40.17;;
69172;SDS011;56280;49.662;8.408;2024-01-11T05:01:13;72.10;;;38.88;;
69172;SDS011;56280;49.662;8.408;2024-01-11T05:03:39;66.47;;;38.13;;
69172;SDS011;56280;49.662;8.408;2024-01-11T05:06:04;68.83;;;38.40;;
69172;SDS011;56280;49.662;8.408;2024-01-11T05:08:29;68.77;;;37.37;;
69172;SDS011;56280;49.662;8.408;2024-01-11T05:10:55;73.20;;;38.77;;
69172;SDS011;56280;49.662;8.408;2024-01-11T05:13:20;72.00;;;39.43;;
69172;SDS011;56280;49.662;8.408;2024-01-11T05:15:46;71.80;;;39.27;;
69172;SDS011;56280;49.662;8.408;2024-01-11T05:18:12;71.67;;;38.17;;
69172;SDS011;56280;49.662;8.408;2024-01-11T05:20:37;69.88;;;38.85;;
69172;SDS011;56280;49.662;8.408;2024-01-11T05:23:03;73.60;;;38.53;;
69172;SDS011;56280;49.662;8.408;2024-01-11T05:25:32;70.43;;;38.13;;
69172;SDS011;56280;49.662;8.408;2024-01-11T05:27:58;68.57;;;38.00;;
69172;SDS011;56280;49.662;8.408;2024-01-11T05:30:27;67.80;;;38.88;;
69172;SDS011;56280;49.662;8.408;2024-01-11T05:32:53;70.88;;;38.63;;
69172;SDS011;56280;49.662;8.408;2024-01-11T05:35:18;71.67;;;38.27;;
69172;SDS011;56280;49.662;8.408;2024-01-11T05:37:43;67.20;;;37.43;;
69172;SDS011;56280;49.662;8.408;2024-01-11T05:40:09;70.00;;;39.43;;
69172;SDS011;56280;49.662;8.408;2024-01-11T05:42:34;78.50;;;40.13;;
69172;SDS011;56280;49.662;8.408;2024-01-11T05:44:59;72.63;;;39.37;;
69172;SDS011;56280;49.662;8.408;2024-01-11T05:47:25;76.73;;;38.53;;
69172;SDS011;56280;49.662;8.408;2024-01-11T05:49:50;75.15;;;39.80;;
69172;SDS011;56280;49.662;8.408;2024-01-11T05:52:16;75.72;;;41.05;;
69172;SDS011;56280;49.662;8.408;2024-01-11T05:54:41;73.77;;;40.67;;
69172;SDS011;56280;49.662;8.408;2024-01-11T05:57:06;72.40;;;39.30;;
69172;SDS011;56280;49.662;8.408;2024-01-11T05:59:32;74.22;;;39.15;;
69172;SDS011;56280;49.662;8.408;2024-01-11T06:01:57;74.70;;;40.70;;
69172;SDS011;56280;49.662;8.408;2024-01-11T06:04:25;75.43;;;40.40;;
69172;SDS011;56280;49.662;8.408;2024-01-11T06:06:51;73.17;;;40.30;;
69172;SDS011;56280;49.662;8.408;2024-01-11T06:09:16;69.73;;;39.13;;
69172;SDS011;56280;49.662;8.408;2024-01-11T06:11:41;75.73;;;41.03;;
69172;SDS011;56280;49.662;8.408;2024-01-11T06:14:07;73.50;;;39.17;;
69172;SDS011;56280;49.662;8.408;2024-01-11T06:16:32;74.37;;;39.63;;
69172;SDS011;56280;49.662;8.408;2024-01-11T06:18:57;75.00;;;40.20;;
69172;SDS011;56280;49.662;8.408;2024-01-11T06:21:22;76.60;;;38.40;;
69172;SDS011;56280;49.662;8.408;2024-01-11T06:23:48;71.88;;;38.42;;
69172;SDS011;56280;49.662;8.408;2024-01-11T06:26:14;78.03;;;39.00;;
69172;SDS011;56280;49.662;8.408;2024-01-11T06:28:39;75.67;;;40.33;;
69172;SDS011;56280;49.662;8.408;2024-01-11T06:31:04;76.20;;;40.93;;
69172;SDS011;56280;49.662;8.408;2024-01-11T06:33:30;72.43;;;38.07;;
69172;SDS011;56280;49.662;8.408;2024-01-11T06:35:55;76.03;;;40.13;;
69172;SDS011;56280;49.662;8.408;2024-01-11T06:38:21;73.60;;;41.33;;
69172;SDS011;56280;49.662;8.408;2024-01-11T06:40:47;71.43;;;38.73;;
69172;SDS011;56280;49.662;8.408;2024-01-11T06:43:13;75.18;;;39.95;;
69172;SDS011;56280;49.662;8.408;2024-01-11T06:45:39;75.90;;;40.80;;
69172;SDS011;56280;49.662;8.408;2024-01-11T06:48:05;72.50;;;40.43;;
69172;SDS011;56280;49.662;8.408;2024-01-11T06:50:31;73.00;;;40.85;;
69172;SDS011;56280;49.662;8.408;2024-01-11T06:52:56;73.13;;;40.87;;
69172;SDS011;56280;49.662;8.408;2024-01-11T06:55:21;76.43;;;39.03;;
69172;SDS011;56280;49.662;8.408;2024-01-11T06:57:47;78.20;;;42.23;;
69172;SDS011;56280;49.662;8.408;2024-01-11T07:00:13;72.03;;;40.47;;
69172;SDS011;56280;49.662;8.408;2024-01-11T07:02:38;75.95;;;40.53;;
69172;SDS011;56280;49.662;8.408;2024-01-11T07:05:05;79.90;;;40.97;;
69172;SDS011;56280;49.662;8.408;2024-01-11T07:07:30;78.85;;;40.97;;
69172;SDS011;56280;49.662;8.408;2024-01-11T07:09:56;73.57;;;38.63;;
69172;SDS011;56280;49.662;8.408;2024-01-11T07:12:21;75.10;;;42.60;;
69172;SDS011;56280;49.662;8.408;2024-01-11T07:14:46;78.60;;;42.13;;
69172;SDS011;56280;49.662;8.408;2024-01-11T07:17:12;77.17;;;41.27;;
69172;SDS011;56280;49.662;8.408;2024-01-11T07:19:37;77.57;;;42.20;;
69172;SDS011;56280;49.662;8.408;2024-01-11T07:22:02;77.93;;;40.67;;
69172;SDS011;56280;49.662;8.408;2024-01-11T07:24:27;76.27;;;39.83;;
69172;SDS011;56280;49.662;8.408;2024-01-11T07:27:00;75.57;;;41.25;;
69172;SDS011;56280;49.662;8.408;2024-01-11T07:29:25;78.67;;;41.87;;
69172;SDS011;56280;49.662;8.408;2024-01-11T07:31:51;80.73;;;41.50;;
69172;SDS011;56280;49.662;8.408;2024-01-11T07:34:16;77.23;;;40.40;;
69172;SDS011;56280;49.662;8.408;2024-01-11T07:36:42;76.13;;;41.13;;
69172;SDS011;56280;49.662;8.408;2024-01-11T07:39:08;78.70;;;42.75;;
69172;SDS011;56280;49.662;8.408;2024-01-11T07:41:33;77.77;;;40.90;;
69172;SDS011;56280;49.662;8.408;2024-01-11T07:43:58;79.23;;;42.43;;
69172;SDS011;56280;49.662;8.408;2024-01-11T07:46:24;76.80;;;41.27;;
69172;SDS011;56280;49.662;8.408;2024-01-11T07:48:50;74.30;;;41.33;;
69172;SDS011;56280;49.662;8.408;2024-01-11T07:51:15;79.63;;;41.00;;
69172;SDS011;56280;49.662;8.408;2024-01-11T07:53:40;74.10;;;37.57;;
69172;SDS011;56280;49.662;8.408;2024-01-11T07:56:06;71.80;;;39.93;;
69172;SDS011;56280;49.662;8.408;2024-01-11T07:58:31;77.13;;;40.57;;
69172;SDS011;56280;49.662;8.408;2024-01-11T08:00:56;73.03;;;39.83;;
69172;SDS011;56280;49.662;8.408;2024-01-11T08:03:21;73.43;;;39.27;;
69172;SDS011;56280;49.662;8.408;2024-01-11T08:05:47;78.10;;;41.60;;
69172;SDS011;56280;49.662;8.408;2024-01-11T08:08:15;83.85;;;42.03;;
69172;SDS011;56280;49.662;8.408;2024-01-11T08:10:40;71.67;;;39.83;;
69172;SDS011;56280;49.662;8.408;2024-01-11T08:13:05;75.37;;;40.83;;
69172;SDS011;56280;49.662;8.408;2024-01-11T08:15:31;75.50;;;40.80;;
69172;SDS011;56280;49.662;8.408;2024-01-11T08:17:56;81.43;;;42.77;;
69172;SDS011;56280;49.662;8.408;2024-01-11T08:20:21;79.55;;;42.88;;
69172;SDS011;56280;49.662;8.408;2024-01-11T08:22:47;79.07;;;41.23;;
69172;SDS011;56280;49.662;8.408;2024-01-11T08:25:12;77.70;;;42.37;;
69172;SDS011;56280;49.662;8.408;2024-01-11T08:27:38;75.97;;;41.42;;
69172;SDS011;56280;49.662;8.408;2024-01-11T08:30:04;81.20;;;41.57;;
69172;SDS011;56280;49.662;8.408;2024-01-11T08:32:31;83.72;;;42.05;;
69172;SDS011;56280;49.662;8.408;2024-01-11T08:34:56;79.70;;;41.03;;
69172;SDS011;56280;49.662;8.408;2024-01-11T08:37:22;74.90;;;39.97;;
69172;SDS011;56280;49.662;8.408;2024-01-11T08:39:48;81.90;;;42.73;;
69172;SDS011;56280;49.662;8.408;2024-01-11T08:42:13;78.53;;;41.40;;
69172;SDS011;56280;49.662;8.408;2024-01-11T08:44:43;79.60;;;41.58;;
69172;SDS011;56280;49.662;8.408;2024-01-11T08:47:08;77.60;;;41.28;;
69172;SDS011;56280;49.662;8.408;2024-01-11T08:49:40;71.33;;;40.27;;
69172;SDS011;56280;49.662;8.408;2024-01-11T08:52:05;74.15;;;41.55;;
69172;SDS011;56280;49.662;8.408;2024-01-11T08:54:31;77.23;;;41.97;;
69172;SDS011;56280;49.662;8.408;2024-01-11T08:57:00;71.40;;;41.07;;
69172;SDS011;56280;49.662;8.408;2024-01-11T08:59:28;73.37;;;42.20;;
69172;SDS011;56280;49.662;8.408;2024-01-11T09:01:53;78.70;;;42.87;;
69172;SDS011;56280;49.662;8.408;2024-01-11T09:04:19;75.27;;;41.57;;
69172;SDS011;56280;49.662;8.408;2024-01-11T09:06:44;78.87;;;44.13;;
69172;SDS011;56280;49.662;8.408;2024-01-11T09:09:10;76.72;;;42.38;;
69172;SDS011;56280;49.662;8.408;2024-01-11T09:11:38;79.50;;;43.83;;
69172;SDS011;56280;49.662;8.408;2024-01-11T09:14:05;83.03;;;43.97;;
69172;SDS011;56280;49.662;8.408;2024-01-11T09:16:31;81.80;;;43.95;;
69172;SDS011;56280;49.662;8.408;2024-01-11T09:18:56;82.63;;;43.05;;
69172;SDS011;56280;49.662;8.408;2024-01-11T09:21:22;80.60;;;44.00;;
69172;SDS011;56280;49.662;8.408;2024-01-11T09:23:47;85.17;;;44.07;;
69172;SDS011;56280;49.662;8.408;2024-01-11T09:26:12;83.30;;;44.17;;
69172;SDS011;56280;49.662;8.408;2024-01-11T09:28:38;86.33;;;43.30;;
69172;SDS011;56280;49.662;8.408;2024-01-11T09:31:05;84.50;;;44.67;;
69172;SDS011;56280;49.662;8.408;2024-01-11T09:33:30;82.10;;;43.97;;
69172;SDS011;56280;49.662;8.408;2024-01-11T09:35:55;82.97;;;44.87;;
69172;SDS011;56280;49.662;8.408;2024-01-11T09:38:21;87.17;;;45.27;;
69172;SDS011;56280;49.662;8.408;2024-01-11T09:40:48;84.20;;;43.20;;
69172;SDS011;56280;49.662;8.408;2024-01-11T09:43:25;88.18;;;44.70;;
69172;SDS011;56280;49.662;8.408;2024-01-11T09:45:51;88.82;;;44.63;;
69172;SDS011;56280;49.662;8.408;2024-01-11T09:48:18;85.50;;;44.80;;
69172;SDS011;56280;49.662;8.408;2024-01-11T09:50:45;82.00;;;42.90;;
69172;SDS011;56280;49.662;8.408;2024-01-11T09:53:12;81.18;;;43.70;;
69172;SDS011;56280;49.662;8.408;2024-01-11T09:55:38;80.85;;;44.35;;
69172;SDS011;56280;49.662;8.408;2024-01-11T09:58:03;81.07;;;44.27;;
69172;SDS011;56280;49.662;8.408;2024-01-11T10:00:30;83.30;;;44.85;;
69172;SDS011;56280;49.662;8.408;2024-01-11T10:02:55;84.47;;;43.53;;
69172;SDS011;56280;49.662;8.408;2024-01-11T10:05:21;85.70;;;44.23;;
69172;SDS011;56280;49.662;8.408;2024-01-11T10:07:47;83.03;;;45.47;;
69172;SDS011;56280;49.662;8.408;2024-01-11T10:10:12;83.47;;;44.53;;
69172;SDS011;56280;49.662;8.408;2024-01-11T10:12:40;86.18;;;45.45;;
69172;SDS011;56280;49.662;8.408;2024-01-11T10:15:06;88.27;;;45.57;;
69172;SDS011;56280;49.662;8.408;2024-01-11T10:17:34;85.03;;;45.40;;
69172;SDS011;56280;49.662;8.408;2024-01-11T10:20:10;85.18;;;46.95;;
69172;SDS011;56280;49.662;8.408;2024-01-11T10:22:36;83.63;;;44.85;;
69172;SDS011;56280;49.662;8.408;2024-01-11T10:25:12;84.53;;;47.13;;
69172;SDS011;56280;49.662;8.408;2024-01-11T10:27:41;87.03;;;47.07;;
69172;SDS011;56280;49.662;8.408;2024-01-11T10:30:09;83.80;;;43.67;;
69172;SDS011;56280;49.662;8.408;2024-01-11T10:32:38;83.30;;;44.28;;
69172;SDS011;56280;49.662;8.408;2024-01-11T10:35:03;89.00;;;47.30;;
69172;SDS011;56280;49.662;8.408;2024-01-11T10:37:30;84.53;;;46.30;;
69172;SDS011;56280;49.662;8.408;2024-01-11T10:39:58;86.15;;;46.03;;
69172;SDS011;56280;49.662;8.408;2024-01-11T10:42:39;87.95;;;46.63;;
69172;SDS011;56280;49.662;8.408;2024-01-11T10:45:10;80.97;;;43.10;;
69172;SDS011;56280;49.662;8.408;2024-01-11T10:50:18;85.17;;;46.50;;
69172;SDS011;56280;49.662;8.408;2024-01-11T10:53:03;78.72;;;44.42;;
69172;SDS011;56280;49.662;8.408;2024-01-11T10:55:35;83.75;;;45.17;;
69172;SDS011;56280;49.662;8.408;2024-01-11T10:58:02;79.78;;;44.50;;
69172;SDS011;56280;49.662;8.408;2024-01-11T11:00:28;79.32;;;44.17;;
69172;SDS011;56280;49.662;8.408;2024-01-11T11:02:55;74.87;;;43.37;;
69172;SDS011;56280;49.662;8.408;2024-01-11T11:05:21;79.07;;;44.43;;
69172;SDS011;56280;49.662;8.408;2024-01-11T11:07:50;80.93;;;44.70;;
69172;SDS011;56280;49.662;8.408;2024-01-11T11:10:18;79.20;;;43.08;;
69172;SDS011;56280;49.662;8.408;2024-01-11T11:12:44;76.95;;;42.30;;
69172;SDS011;56280;49.662;8.408;2024-01-11T11:15:12;77.72;;;43.53;;
69172;SDS011;56280;49.662;8.408;2024-01-11T11:17:39;77.73;;;43.70;;
69172;SDS011;56280;49.662;8.408;2024-01-11T11:20:08;78.80;;;44.03;;
69172;SDS011;56280;49.662;8.408;2024-01-11T11:22:36;76.90;;;43.55;;
69172;SDS011;56280;49.662;8.408;2024-01-11T11:25:02;81.27;;;43.47;;
69172;SDS011;56280;49.662;8.408;2024-01-11T11:27:30;81.70;;;44.45;;
69172;SDS011;56280;49.662;8.408;2024-01-11T11:29:56;83.00;;;44.83;;
69172;SDS011;56280;49.662;8.408;2024-01-11T11:32:34;79.50;;;44.40;;
69172;SDS011;56280;49.662;8.408;2024-01-11T11:35:04;76.72;;;45.28;;
69172;SDS011;56280;49.662;8.408;2024-01-11T11:37:33;80.20;;;44.13;;
69172;SDS011;56280;49.662;8.408;2024-01-11T11:40:01;78.10;;;45.72;;
69172;SDS011;56280;49.662;8.408;2024-01-11T11:42:27;77.20;;;45.63;;
69172;SDS011;56280;49.662;8.408;2024-01-11T11:44:55;80.22;;;43.92;;
69172;SDS011;56280;49.662;8.408;2024-01-11T11:47:22;78.60;;;45.17;;
69172;SDS011;56280;49.662;8.408;2024-01-11T11:50:04;75.57;;;43.42;;
69172;SDS011;56280;49.662;8.408;2024-01-11T11:52:32;78.32;;;42.60;;
69172;SDS011;56280;49.662;8.408;2024-01-11T11:54:59;78.30;;;43.53;;
69172;SDS011;56280;49.662;8.408;2024-01-11T11:57:26;73.72;;;42.58;;
69172;SDS011;56280;49.662;8.408;2024-01-11T11:59:58;75.25;;;43.53;;
69172;SDS011;56280;49.662;8.408;2024-01-11T12:02:24;69.90;;;42.70;;
69172;SDS011;56280;49.662;8.408;2024-01-11T12:04:51;70.45;;;41.33;;
69172;SDS011;56280;49.662;8.408;2024-01-11T12:07:16;71.97;;;41.33;;
69172;SDS011;56280;49.662;8.408;2024-01-11T12:09:42;74.45;;;41.42;;
69172;SDS011;56280;49.662;8.408;2024-01-11T12:12:07;71.70;;;41.63;;
69172;SDS011;56280;49.662;8.408;2024-01-11T12:14:33;66.70;;;41.28;;
69172;SDS011;56280;49.662;8.408;2024-01-11T12:16:59;67.87;;;39.57;;
69172;SDS011;56280;49.662;8.408;2024-01-11T12:19:25;70.60;;;41.27;;
69172;SDS011;56280;49.662;8.408;2024-01-11T12:21:50;69.95;;;40.90;;
69172;SDS011;56280;49.662;8.408;2024-01-11T12:24:16;69.27;;;40.87;;
69172;SDS011;56280;49.662;8.408;2024-01-11T12:26:42;65.93;;;41.30;;
69172;SDS011;56280;49.662;8.408;2024-01-11T12:29:07;69.97;;;39.72;;
69172;SDS011;56280;49.662;8.408;2024-01-11T12:31:34;67.05;;;38.63;;
69172;SDS011;56280;49.662;8.408;2024-01-11T12:34:00;66.23;;;39.20;;
69172;SDS011;56280;49.662;8.408;2024-01-11T12:36:26;68.32;;;40.20;;
69172;SDS011;56280;49.662;8.408;2024-01-11T12:38:51;66.50;;;39.00;;
69172;SDS011;56280;49.662;8.408;2024-01-11T12:41:17;63.72;;;39.22;;
69172;SDS011;56280;49.662;8.408;2024-01-11T12:43:44;64.82;;;39.15;;
69172;SDS011;56280;49.662;8.408;2024-01-11T12:46:09;68.93;;;39.73;;
69172;SDS011;56280;49.662;8.408;2024-01-11T12:48:34;65.22;;;39.53;;
69172;SDS011;56280;49.662;8.408;2024-01-11T12:51:00;60.00;;;36.50;;
69172;SDS011;56280;49.662;8.408;2024-01-11T12:53:25;65.47;;;38.38;;
69172;SDS011;56280;49.662;8.408;2024-01-11T12:56:06;67.75;;;39.50;;
69172;SDS011;56280;49.662;8.408;2024-01-11T12:58:35;62.93;;;38.47;;
69172;SDS011;56280;49.662;8.408;2024-01-11T13:01:04;62.70;;;38.00;;
69172;SDS011;56280;49.662;8.408;2024-01-11T13:03:32;64.55;;;38.15;;
69172;SDS011;56280;49.662;8.408;2024-01-11T13:05:57;61.75;;;37.15;;
69172;SDS011;56280;49.662;8.408;2024-01-11T13:08:24;59.93;;;36.30;;
69172;SDS011;56280;49.662;8.408;2024-01-11T13:10:49;60.92;;;35.92;;
69172;SDS011;56280;49.662;8.408;2024-01-11T13:13:15;60.57;;;37.77;;
69172;SDS011;56280;49.662;8.408;2024-01-11T13:15:40;59.90;;;38.00;;
69172;SDS011;56280;49.662;8.408;2024-01-11T13:18:06;58.07;;;36.43;;
69172;SDS011;56280;49.662;8.408;2024-01-11T13:20:31;62.53;;;37.73;;
69172;SDS011;56280;49.662;8.408;2024-01-11T13:25:48;61.03;;;37.28;;
69172;SDS011;56280;49.662;8.408;2024-01-11T13:28:14;57.58;;;36.85;;
69172;SDS011;56280;49.662;8.408;2024-01-11T13:30:40;57.73;;;36.87;;
69172;SDS011;56280;49.662;8.408;2024-01-11T13:33:06;60.30;;;36.80;;
69172;SDS011;56280;49.662;8.408;2024-01-11T13:35:36;58.30;;;34.90;;
69172;SDS011;56280;49.662;8.408;2024-01-11T13:38:02;57.78;;;35.90;;
69172;SDS011;56280;49.662;8.408;2024-01-11T13:40:28;56.37;;;34.77;;
69172;SDS011;56280;49.662;8.408;2024-01-11T13:42:54;59.72;;;35.17;;
69172;SDS011;56280;49.662;8.408;2024-01-11T13:45:20;57.67;;;36.05;;
69172;SDS011;56280;49.662;8.408;2024-01-11T13:47:45;57.73;;;35.87;;
69172;SDS011;56280;49.662;8.408;2024-01-11T13:50:11;57.93;;;37.27;;
69172;SDS011;56280;49.662;8.408;2024-01-11T13:52:37;60.03;;;36.75;;
69172;SDS011;56280;49.662;8.408;2024-01-11T13:55:02;57.72;;;36.58;;
69172;SDS011;56280;49.662;8.408;2024-01-11T13:57:28;58.85;;;36.60;;
69172;SDS011;56280;49.662;8.408;2024-01-11T13:59:53;57.13;;;35.63;;
69172;SDS011;56280;49.662;8.408;2024-01-11T14:02:19;59.77;;;36.73;;
69172;SDS011;56280;49.662;8.408;2024-01-11T14:04:44;56.23;;;35.60;;
69172;SDS011;56280;49.662;8.408;2024-01-11T14:07:09;56.25;;;34.92;;
69172;SDS011;56280;49.662;8.408;2024-01-11T14:09:34;58.53;;;36.20;;
69172;SDS011;56280;49.662;8.408;2024-01-11T14:12:00;59.60;;;36.97;;
69172;SDS011;56280;49.662;8.408;2024-01-11T14:14:25;59.17;;;35.70;;
69172;SDS011;56280;49.662;8.408;2024-01-11T14:16:51;58.70;;;35.72;;
69172;SDS011;56280;49.662;8.408;2024-01-11T14:19:16;57.15;;;34.95;;
69172;SDS011;56280;49.662;8.408;2024-01-11T14:21:42;54.88;;;35.40;;